Time;durP1;ratioP1;P1;durP2;ratioP2;P2;SDS_P1;SDS_P2;PMS_P1;PMS_P2;Temp;Humidity;BMP_temperature;BMP_pressure;BME280_temperature;BME280_humidity;BME280_pressure;Samples;Min_cycle;Max_cycle;Signal;HPM_P1;HPM_P2
2021/12/30 00:00:15;;;;;;;2.43;1.20;;;22.70;71.00;;;;;;5072649;28;20432;-63
2021/12/30 00:02:42;;;;;;;1.73;1.10;;;22.70;71.10;;;;;;5073519;28;20440;-63
2021/12/30 00:05:10;;;;;;;1.47;1.00;;;22.70;71.10;;;;;;5076253;28;20448;-63
2021/12/30 00:07:37;;;;;;;1.50;1.23;;;22.70;71.20;;;;;;5076143;28;20437;-63
2021/12/30 00:10:05;;;;;;;4.07;0.90;;;22.70;71.10;;;;;;5076175;28;20457;-63
2021/12/30 00:12:32;;;;;;;1.10;0.90;;;22.70;71.20;;;;;;5076261;28;20487;-63
2021/12/30 00:15:00;;;;;;;1.20;1.10;;;22.60;71.10;;;;;;5076328;28;20436;-63
2021/12/30 00:17:27;;;;;;;1.23;1.00;;;22.60;71.10;;;;;;5075892;28;20472;-63
2021/12/30 00:19:54;;;;;;;1.70;1.50;;;22.60;71.10;;;;;;5075985;28;20447;-63
2021/12/30 00:22:20;;;;;;;1.83;1.00;;;22.60;71.10;;;;;;5076158;28;20448;-63
2021/12/30 00:24:47;;;;;;;1.30;1.10;;;22.60;71.10;;;;;;5075869;28;20833;-63
2021/12/30 00:27:14;;;;;;;1.40;1.30;;;22.60;71.20;;;;;;5075936;28;20440;-63
2021/12/30 00:29:40;;;;;;;1.30;1.20;;;22.60;71.30;;;;;;5075876;28;20440;-63
2021/12/30 00:32:09;;;;;;;1.20;1.10;;;22.60;71.30;;;;;;5075918;28;20483;-63
2021/12/30 00:34:36;;;;;;;1.23;1.00;;;22.60;71.20;;;;;;5075862;28;20444;-63
2021/12/30 00:37:03;;;;;;;1.20;1.07;;;22.60;71.20;;;;;;5075754;28;20455;-63
2021/12/30 00:39:29;;;;;;;1.40;1.30;;;22.60;71.20;;;;;;5075525;28;20461;-63
2021/12/30 00:41:56;;;;;;;1.43;1.33;;;22.60;71.20;;;;;;5075666;28;20449;-63
2021/12/30 00:44:23;;;;;;;1.20;1.10;;;22.60;71.20;;;;;;5075538;28;20454;-63
2021/12/30 00:46:50;;;;;;;1.20;1.10;;;22.60;71.10;;;;;;5075615;28;20445;-63
2021/12/30 00:49:18;;;;;;;1.20;0.97;;;22.70;71.20;;;;;;5075461;28;20444;-63
2021/12/30 00:51:45;;;;;;;1.70;1.50;;;22.60;71.20;;;;;;5075450;28;20488;-63
2021/12/30 00:54:12;;;;;;;1.40;1.30;;;22.60;71.10;;;;;;5075305;28;20441;-63
2021/12/30 00:56:38;;;;;;;2.33;1.20;;;22.60;71.20;;;;;;5075234;28;20457;-63
2021/12/30 00:59:05;;;;;;;1.23;1.13;;;22.60;71.30;;;;;;5075270;28;20432;-63
2021/12/30 01:01:32;;;;;;;1.60;1.30;;;22.60;71.30;;;;;;5075222;28;20441;-63
2021/12/30 01:03:59;;;;;;;1.80;1.20;;;22.60;71.30;;;;;;5075231;28;20790;-63
2021/12/30 01:06:28;;;;;;;1.43;1.33;;;22.60;71.20;;;;;;5075127;28;20444;-63
2021/12/30 01:08:55;;;;;;;2.30;1.13;;;22.60;71.30;;;;;;5075035;28;20483;-63
2021/12/30 01:11:23;;;;;;;1.57;1.00;;;22.60;71.30;;;;;;5075539;28;20444;-63
2021/12/30 01:13:58;;;;;;;1.40;1.30;;;22.60;71.30;;;;;;5074411;28;20451;-63
2021/12/30 01:16:29;;;;;;;2.80;1.00;;;22.60;71.30;;;;;;5074705;28;20954;-63
2021/12/30 01:19:01;;;;;;;1.43;1.23;;;22.60;71.40;;;;;;5075065;28;20480;-63
2021/12/30 01:21:32;;;;;;;1.80;1.30;;;22.60;71.30;;;;;;5074977;28;20490;-63
2021/12/30 01:24:01;;;;;;;1.53;1.43;;;22.60;71.30;;;;;;5075130;28;20432;-63
2021/12/30 01:26:28;;;;;;;1.43;1.30;;;22.60;71.40;;;;;;5074822;28;20440;-63
2021/12/30 01:28:55;;;;;;;1.77;1.00;;;22.60;71.40;;;;;;5074860;28;20429;-63
2021/12/30 01:31:22;;;;;;;1.23;1.13;;;22.50;71.40;;;;;;5074724;28;20437;-63
2021/12/30 01:33:49;;;;;;;1.57;1.47;;;22.50;71.40;;;;;;5074745;28;20792;-63
2021/12/30 01:36:16;;;;;;;1.40;1.30;;;22.60;71.40;;;;;;5074509;28;20437;-63
2021/12/30 01:38:45;;;;;;;2.37;1.30;;;22.50;71.40;;;;;;5074393;28;20942;-63
2021/12/30 01:41:13;;;;;;;1.57;1.20;;;22.60;71.40;;;;;;5074235;28;20471;-63
2021/12/30 01:43:40;;;;;;;1.10;1.00;;;22.60;71.40;;;;;;5074456;28;20840;-63
2021/12/30 01:46:08;;;;;;;1.33;1.10;;;22.60;71.40;;;;;;5074398;28;20440;-63
2021/12/30 01:48:35;;;;;;;1.40;1.30;;;22.50;71.40;;;;;;5074337;28;20914;-63
2021/12/30 01:51:03;;;;;;;1.60;1.13;;;22.50;71.40;;;;;;5074261;28;20439;-63
2021/12/30 01:53:30;;;;;;;1.50;1.10;;;22.50;71.40;;;;;;5074101;28;20488;-63
2021/12/30 01:55:58;;;;;;;1.30;1.20;;;22.50;71.50;;;;;;5074145;28;20436;-63
2021/12/30 01:58:26;;;;;;;1.20;1.00;;;22.50;71.50;;;;;;5074085;28;20449;-63
2021/12/30 02:00:52;;;;;;;1.80;1.30;;;22.50;71.40;;;;;;5074104;28;20437;-63
2021/12/30 02:03:21;;;;;;;1.23;1.13;;;22.50;71.40;;;;;;5074116;28;20440;-63
2021/12/30 02:05:48;;;;;;;1.30;1.20;;;22.50;71.50;;;;;;5074096;28;20906;-63
2021/12/30 02:08:17;;;;;;;1.00;0.90;;;22.50;71.50;;;;;;5073817;28;20449;-63
2021/12/30 02:10:45;;;;;;;1.27;1.17;;;22.50;71.40;;;;;;5073885;28;20457;-63
2021/12/30 02:13:15;;;;;;;1.50;1.20;;;22.50;71.40;;;;;;5073783;28;20493;-63
2021/12/30 02:15:42;;;;;;;1.43;1.00;;;22.50;71.40;;;;;;5073880;28;20440;-63
2021/12/30 02:18:09;;;;;;;1.30;1.20;;;22.50;71.50;;;;;;5073874;28;20815;-63
2021/12/30 02:20:46;;;;;;;1.20;1.10;;;22.50;71.50;;;;;;5073892;28;20460;-63
2021/12/30 02:23:16;;;;;;;2.37;1.20;;;22.50;72.30;;;;;;5073749;28;20447;-63
2021/12/30 02:25:43;;;;;;;1.50;1.20;;;22.50;71.40;;;;;;5073589;28;20441;-63
2021/12/30 02:28:13;;;;;;;2.03;1.20;;;22.50;71.40;;;;;;5074008;28;20433;-63
2021/12/30 02:30:40;;;;;;;1.20;1.03;;;22.50;71.50;;;;;;5073929;28;20429;-63
2021/12/30 02:33:08;;;;;;;1.13;1.03;;;22.50;71.50;;;;;;5073789;28;20484;-63
2021/12/30 02:35:35;;;;;;;2.90;1.63;;;22.50;71.50;;;;;;5073511;28;20444;-63
2021/12/30 02:38:03;;;;;;;1.30;1.10;;;22.50;71.60;;;;;;5073338;28;20444;-63
2021/12/30 02:40:36;;;;;;;2.10;1.10;;;22.50;71.50;;;;;;5073317;28;20457;-63
2021/12/30 02:43:04;;;;;;;1.50;1.40;;;22.50;71.50;;;;;;5073406;28;20926;-63
2021/12/30 02:45:31;;;;;;;1.50;1.13;;;22.50;71.60;;;;;;5073558;28;20454;-63
2021/12/30 02:47:58;;;;;;;1.10;1.00;;;22.40;71.50;;;;;;5073428;28;20772;-63
2021/12/30 02:50:24;;;;;;;1.20;1.10;;;22.50;71.60;;;;;;5073351;28;20777;-63
2021/12/30 02:52:52;;;;;;;2.07;1.33;;;22.50;71.60;;;;;;5073231;28;20492;-63
2021/12/30 02:55:20;;;;;;;1.30;1.10;;;22.50;71.60;;;;;;5073383;28;20436;-63
2021/12/30 02:57:47;;;;;;;1.70;1.33;;;22.50;71.60;;;;;;5073308;28;20437;-63
2021/12/30 03:00:14;;;;;;;1.37;1.27;;;22.40;72.40;;;;;;5073263;28;20440;-63
2021/12/30 03:02:41;;;;;;;1.30;1.20;;;22.50;71.60;;;;;;5073240;28;20947;-63
2021/12/30 03:05:09;;;;;;;1.37;1.27;;;22.40;71.50;;;;;;5073144;28;20436;-63
2021/12/30 03:07:37;;;;;;;1.33;1.00;;;22.50;71.60;;;;;;5073048;28;20433;-63
2021/12/30 03:10:05;;;;;;;1.20;0.90;;;22.50;71.60;;;;;;5073328;28;20506;-63
2021/12/30 03:12:33;;;;;;;1.67;1.20;;;22.50;71.70;;;;;;5073160;28;20472;-63
2021/12/30 03:15:00;;;;;;;1.23;1.13;;;22.40;71.60;;;;;;5073305;28;20433;-63
2021/12/30 03:17:27;;;;;;;1.53;1.20;;;22.40;71.60;;;;;;5073091;28;20476;-63
2021/12/30 03:19:56;;;;;;;1.20;1.00;;;22.40;71.60;;;;;;5073024;28;20436;-63
2021/12/30 03:22:22;;;;;;;1.30;1.10;;;22.40;71.60;;;;;;5073122;28;20839;-63
2021/12/30 03:24:49;;;;;;;1.57;1.10;;;22.50;71.70;;;;;;5072958;28;20432;-63
2021/12/30 03:27:16;;;;;;;1.20;1.10;;;22.50;71.70;;;;;;5072962;28;20444;-63
2021/12/30 03:29:44;;;;;;;2.17;1.03;;;22.50;71.60;;;;;;5073075;28;20444;-63
2021/12/30 03:32:11;;;;;;;1.10;0.97;;;22.50;71.60;;;;;;5072969;28;20436;-63
2021/12/30 03:34:37;;;;;;;1.70;1.30;;;22.50;71.60;;;;;;5072984;28;20444;-63
2021/12/30 03:37:04;;;;;;;1.10;0.90;;;22.50;71.60;;;;;;5072843;28;20444;-62
2021/12/30 03:39:31;;;;;;;2.17;1.00;;;22.40;71.60;;;;;;5076728;28;20484;-63
2021/12/30 03:41:59;;;;;;;1.83;1.27;;;22.50;72.60;;;;;;5076870;28;20475;-63
2021/12/30 03:44:26;;;;;;;1.87;1.30;;;22.50;71.70;;;;;;5076737;28;20992;-63
2021/12/30 03:46:54;;;;;;;1.30;1.20;;;22.50;71.70;;;;;;5076639;28;20824;-63
2021/12/30 03:49:21;;;;;;;1.20;1.10;;;22.50;71.80;;;;;;5076731;28;20470;-63
2021/12/30 03:51:51;;;;;;;1.20;0.80;;;22.50;71.80;;;;;;5076992;28;20433;-63
2021/12/30 03:54:17;;;;;;;1.10;0.97;;;22.50;71.80;;;;;;5076367;28;20536;-63
2021/12/30 03:56:44;;;;;;;1.30;1.10;;;22.50;71.70;;;;;;5076442;28;20459;-63
2021/12/30 03:59:11;;;;;;;1.67;1.10;;;22.50;71.70;;;;;;5076519;28;20440;-63
2021/12/30 04:01:39;;;;;;;1.50;1.20;;;22.50;71.80;;;;;;5076294;28;20456;-63
2021/12/30 04:04:07;;;;;;;1.30;1.20;;;22.50;71.70;;;;;;5076517;28;20447;-63
2021/12/30 04:06:34;;;;;;;1.37;1.27;;;22.50;71.80;;;;;;5076332;28;20428;-63
2021/12/30 04:09:01;;;;;;;1.43;1.10;;;22.50;71.80;;;;;;5076039;28;20440;-63
2021/12/30 04:11:33;;;;;;;2.23;1.20;;;22.50;71.80;;;;;;5076498;28;20440;-63
2021/12/30 04:14:00;;;;;;;1.30;1.20;;;22.50;71.80;;;;;;5076274;28;20485;-63
2021/12/30 04:16:27;;;;;;;1.53;1.00;;;22.50;71.80;;;;;;5075841;28;20451;-63
2021/12/30 04:18:53;;;;;;;3.43;1.17;;;22.50;71.80;;;;;;5076220;28;20792;-63
2021/12/30 04:21:24;;;;;;;1.30;1.00;;;22.40;71.80;;;;;;5076272;28;20450;-63
2021/12/30 04:23:52;;;;;;;1.63;1.30;;;22.40;71.80;;;;;;5076050;28;20449;-63
2021/12/30 04:26:19;;;;;;;1.20;1.00;;;22.50;71.90;;;;;;5075948;28;20441;-63
2021/12/30 04:28:45;;;;;;;1.30;1.00;;;22.50;71.90;;;;;;5076177;28;20443;-63
2021/12/30 04:31:12;;;;;;;1.23;1.13;;;22.50;71.80;;;;;;5075923;28;20433;-63
2021/12/30 04:33:40;;;;;;;1.30;1.13;;;22.50;71.90;;;;;;5075772;28;20506;-63
2021/12/30 04:36:07;;;;;;;1.50;1.40;;;22.50;72.00;;;;;;5075675;28;20931;-63
2021/12/30 04:38:36;;;;;;;2.00;0.90;;;22.40;72.70;;;;;;5075749;28;20494;-63
2021/12/30 04:41:04;;;;;;;1.17;0.93;;;22.50;71.90;;;;;;5075709;28;20460;-63
2021/12/30 04:43:31;;;;;;;1.47;1.10;;;22.50;72.00;;;;;;5075687;28;20435;-63
2021/12/30 04:45:59;;;;;;;1.10;1.00;;;22.50;72.00;;;;;;5075671;28;20531;-63
2021/12/30 04:48:26;;;;;;;1.17;1.00;;;22.40;71.90;;;;;;5075683;28;20444;-63
2021/12/30 04:50:53;;;;;;;1.50;1.00;;;22.50;72.00;;;;;;5075519;28;20448;-63
2021/12/30 04:53:20;;;;;;;1.43;1.30;;;22.50;72.00;;;;;;5075283;28;20533;-64
2021/12/30 04:55:49;;;;;;;1.47;1.37;;;22.50;72.00;;;;;;5075330;28;20824;-63
2021/12/30 04:58:17;;;;;;;1.50;1.37;;;22.50;71.90;;;;;;5075470;28;20441;-63
2021/12/30 05:00:44;;;;;;;1.97;1.20;;;22.50;72.00;;;;;;5075390;28;20919;-63
2021/12/30 05:03:12;;;;;;;1.43;1.33;;;22.50;72.00;;;;;;5075387;28;20448;-63
2021/12/30 05:05:41;;;;;;;1.30;1.20;;;22.50;71.90;;;;;;5075166;28;20441;-63
2021/12/30 05:08:08;;;;;;;1.53;1.37;;;22.50;71.90;;;;;;5075117;28;20439;-63
2021/12/30 05:10:36;;;;;;;1.40;1.07;;;22.50;72.00;;;;;;5074991;28;20456;-63
2021/12/30 05:13:06;;;;;;;1.40;1.00;;;22.50;71.90;;;;;;5075287;28;20484;-63
2021/12/30 05:15:33;;;;;;;1.20;1.00;;;22.50;71.90;;;;;;5075331;28;20475;-63
2021/12/30 05:17:59;;;;;;;1.20;1.10;;;22.50;72.00;;;;;;5074809;28;20484;-63
2021/12/30 05:20:26;;;;;;;1.30;1.13;;;22.50;72.00;;;;;;5075071;28;20440;-63
2021/12/30 05:22:53;;;;;;;4.83;1.30;;;22.50;72.00;;;;;;5074959;28;20444;-63
2021/12/30 05:25:20;;;;;;;4.50;1.40;;;22.50;72.20;;;;;;5074753;28;20440;-63
2021/12/30 05:27:49;;;;;;;1.57;1.30;;;22.50;72.10;;;;;;5074910;28;20448;-63
2021/12/30 05:30:19;;;;;;;1.20;1.00;;;22.50;72.20;;;;;;5074743;28;20527;-63
2021/12/30 05:32:46;;;;;;;1.73;1.30;;;22.50;72.00;;;;;;5074615;28;20444;-63
2021/12/30 05:35:13;;;;;;;1.30;1.00;;;22.50;72.00;;;;;;5074731;28;20920;-63
2021/12/30 05:37:41;;;;;;;1.57;1.10;;;22.50;72.00;;;;;;5074452;28;20524;-63
2021/12/30 05:40:10;;;;;;;1.20;1.00;;;22.50;72.00;;;;;;5074480;28;20884;-63
2021/12/30 05:42:37;;;;;;;2.90;1.00;;;22.50;72.00;;;;;;5074439;28;20433;-63
2021/12/30 05:45:06;;;;;;;2.03;0.90;;;22.50;72.10;;;;;;5074511;28;20447;-63
2021/12/30 05:47:34;;;;;;;1.70;1.30;;;22.40;72.00;;;;;;5074525;28;20429;-63
2021/12/30 05:50:02;;;;;;;1.67;1.00;;;22.50;72.10;;;;;;5074447;28;20476;-63
2021/12/30 05:52:28;;;;;;;1.20;1.00;;;22.50;72.00;;;;;;5074286;28;20780;-63
2021/12/30 05:54:55;;;;;;;1.10;0.90;;;22.50;72.00;;;;;;5074200;28;20488;-63
2021/12/30 05:57:22;;;;;;;1.30;0.90;;;22.60;72.00;;;;;;5073947;28;20444;-62
2021/12/30 05:59:49;;;;;;;3.47;0.83;;;22.50;72.00;;;;;;5073947;28;20458;-63
2021/12/30 06:02:16;;;;;;;2.60;0.90;;;22.60;72.10;;;;;;5073963;28;20511;-63
2021/12/30 06:04:44;;;;;;;1.93;1.20;;;22.50;71.90;;;;;;5074029;28;20437;-63
2021/12/30 06:07:11;;;;;;;1.17;1.07;;;22.60;72.00;;;;;;5074044;28;20440;-63
2021/12/30 06:09:38;;;;;;;1.20;1.07;;;22.60;71.90;;;;;;5073777;28;20468;-63
2021/12/30 06:12:05;;;;;;;1.40;0.80;;;22.60;72.00;;;;;;5073833;28;20439;-63
2021/12/30 06:14:32;;;;;;;4.10;0.80;;;22.60;72.00;;;;;;5073860;28;20537;-63
2021/12/30 06:16:59;;;;;;;1.10;1.00;;;22.60;72.00;;;;;;5073490;28;20468;-63
2021/12/30 06:19:26;;;;;;;1.47;0.90;;;22.60;72.00;;;;;;5073708;28;20432;-63
2021/12/30 06:21:54;;;;;;;1.30;1.10;;;22.60;71.90;;;;;;5073987;28;20436;-63
2021/12/30 06:24:20;;;;;;;1.43;0.80;;;22.60;71.90;;;;;;5073901;28;20436;-63
2021/12/30 06:26:47;;;;;;;1.23;0.90;;;22.60;71.90;;;;;;5073749;28;20838;-62
2021/12/30 06:29:14;;;;;;;0.90;0.70;;;22.60;71.90;;;;;;5073694;28;20437;-63
2021/12/30 06:31:41;;;;;;;1.10;0.90;;;22.70;71.90;;;;;;5073556;28;20811;-63
2021/12/30 06:34:08;;;;;;;1.30;0.87;;;22.70;71.90;;;;;;5073673;28;20480;-63
2021/12/30 06:36:36;;;;;;;1.70;0.90;;;22.70;71.80;;;;;;5073749;28;20448;-63
2021/12/30 06:39:05;;;;;;;1.00;0.90;;;22.70;71.80;;;;;;5073547;28;20464;-63
2021/12/30 06:41:32;;;;;;;2.10;1.00;;;22.70;71.80;;;;;;5073542;28;20440;-63
2021/12/30 06:43:59;;;;;;;1.20;0.80;;;22.70;71.80;;;;;;5073488;28;20437;-63
2021/12/30 06:46:26;;;;;;;1.30;0.93;;;22.70;71.90;;;;;;5073377;28;20840;-63
2021/12/30 06:48:52;;;;;;;1.07;0.80;;;22.70;71.90;;;;;;5073640;28;20437;-63
2021/12/30 06:51:23;;;;;;;0.90;0.80;;;22.70;71.90;;;;;;5073445;28;20443;-63
2021/12/30 06:53:51;;;;;;;1.00;0.80;;;22.60;71.90;;;;;;5073252;28;20483;-63
2021/12/30 06:56:19;;;;;;;1.20;1.10;;;22.60;72.00;;;;;;5073251;28;20969;-63
2021/12/30 06:58:46;;;;;;;1.10;0.83;;;22.70;72.00;;;;;;5073491;28;20436;-63
2021/12/30 07:01:13;;;;;;;1.20;0.90;;;22.60;72.00;;;;;;5073364;28;20455;-63
2021/12/30 07:03:40;;;;;;;1.00;0.80;;;22.70;72.00;;;;;;5073277;28;20958;-63
2021/12/30 07:06:07;;;;;;;1.20;0.70;;;22.70;71.90;;;;;;5073253;28;20445;-63
2021/12/30 07:08:34;;;;;;;1.10;0.90;;;22.70;72.00;;;;;;5073494;28;20992;-63
2021/12/30 07:11:01;;;;;;;1.10;0.80;;;22.70;71.90;;;;;;5073101;28;20460;-63
2021/12/30 07:13:29;;;;;;;1.10;0.90;;;22.70;72.00;;;;;;5075511;28;21054;-63
2021/12/30 07:15:56;;;;;;;1.10;0.80;;;22.70;71.90;;;;;;5077191;28;20962;-63
2021/12/30 07:18:23;;;;;;;1.10;0.90;;;22.70;72.00;;;;;;5077315;28;20479;-63
2021/12/30 07:20:49;;;;;;;1.77;1.67;;;22.70;71.90;;;;;;5077133;28;20942;-62
2021/12/30 07:23:16;;;;;;;1.10;0.87;;;22.70;72.40;;;;;;5077063;28;20436;-63
2021/12/30 07:25:43;;;;;;;1.10;1.00;;;22.70;72.80;;;;;;5063155;28;20499;-62
2021/12/30 07:28:09;;;;;;;1.00;0.83;;;22.70;73.20;;;;;;5056988;28;20429;-63
2021/12/30 07:30:38;;;;;;;1.20;0.90;;;22.60;73.20;;;;;;5056982;28;20948;-63
2021/12/30 07:33:06;;;;;;;1.20;1.00;;;22.60;73.30;;;;;;5057037;28;20442;-63
2021/12/30 07:35:35;;;;;;;1.80;1.20;;;22.50;73.40;;;;;;5056860;28;20481;-63
2021/12/30 07:38:03;;;;;;;1.00;0.77;;;22.60;73.50;;;;;;5056684;28;20438;-63
2021/12/30 07:40:30;;;;;;;1.10;1.00;;;22.50;73.40;;;;;;5056966;28;20465;-63
2021/12/30 07:42:57;;;;;;;4.43;1.70;;;22.50;73.40;;;;;;5056900;28;20788;-63
2021/12/30 07:45:24;;;;;;;3.57;1.10;;;22.50;75.60;;;;;;5056767;28;20943;-63
2021/12/30 07:47:53;;;;;;;1.13;1.00;;;22.50;75.10;;;;;;5057384;28;20449;-63
2021/12/30 07:50:21;;;;;;;1.97;1.20;;;22.50;74.20;;;;;;5056625;28;20793;-63
2021/12/30 07:52:48;;;;;;;1.50;0.83;;;22.50;74.10;;;;;;5056590;28;20437;-63
2021/12/30 07:55:15;;;;;;;8.57;1.67;;;22.50;73.90;;;;;;5056630;28;20499;-63
2021/12/30 07:57:43;;;;;;;1.50;0.90;;;22.50;74.10;;;;;;5056434;28;20441;-63
2021/12/30 08:00:13;;;;;;;3.37;0.90;;;22.50;74.10;;;;;;5056628;28;20441;-63
2021/12/30 08:02:42;;;;;;;1.60;1.10;;;22.50;74.10;;;;;;5056554;28;20434;-63
2021/12/30 08:05:10;;;;;;;1.10;0.80;;;22.60;75.10;;;;;;5056384;28;20498;-64
2021/12/30 08:07:37;;;;;;;2.20;1.13;;;22.60;74.30;;;;;;5056262;28;20499;-63
2021/12/30 08:10:05;;;;;;;1.10;1.00;;;22.50;74.10;;;;;;5056111;28;20465;-63
2021/12/30 08:12:32;;;;;;;1.40;0.90;;;22.50;74.10;;;;;;5056198;28;20829;-64
2021/12/30 08:14:59;;;;;;;1.60;1.00;;;22.50;74.10;;;;;;5056118;28;20496;-64
2021/12/30 08:17:25;;;;;;;1.10;0.80;;;22.50;74.20;;;;;;5055972;28;20476;-63
2021/12/30 08:19:52;;;;;;;1.10;0.90;;;22.50;74.20;;;;;;5056245;28;20436;-64
2021/12/30 08:22:20;;;;;;;1.00;0.87;;;22.50;74.20;;;;;;5055755;28;20944;-63
2021/12/30 08:24:47;;;;;;;1.77;1.00;;;22.50;74.20;;;;;;5055500;28;20457;-63
2021/12/30 08:27:14;;;;;;;1.20;1.00;;;22.40;74.10;;;;;;5055877;28;20441;-63
2021/12/30 08:29:41;;;;;;;1.17;0.97;;;22.50;74.20;;;;;;5056060;28;20764;-64
2021/12/30 08:32:11;;;;;;;2.20;0.80;;;22.40;74.10;;;;;;5056110;28;20444;-63
2021/12/30 08:34:38;;;;;;;4.10;1.00;;;22.40;74.10;;;;;;5055908;28;20512;-64
2021/12/30 08:37:04;;;;;;;1.63;1.20;;;22.50;74.20;;;;;;5055550;28;20515;-63
2021/12/30 08:39:35;;;;;;;1.20;1.00;;;22.40;74.10;;;;;;5055609;28;20465;-63
2021/12/30 08:42:03;;;;;;;1.50;0.93;;;22.50;74.10;;;;;;5055852;28;20466;-63
2021/12/30 08:44:30;;;;;;;1.10;0.80;;;22.50;74.10;;;;;;5055659;28;20448;-63
2021/12/30 08:46:57;;;;;;;1.10;0.97;;;22.50;74.10;;;;;;5055403;28;20937;-63
2021/12/30 08:49:24;;;;;;;1.03;0.90;;;22.50;74.00;;;;;;5055671;28;20446;-63
2021/12/30 08:51:51;;;;;;;4.20;0.90;;;22.50;74.00;;;;;;5055550;28;20445;-63
2021/12/30 08:54:17;;;;;;;1.03;0.90;;;22.40;73.90;;;;;;5055458;28;20474;-65
2021/12/30 08:56:45;;;;;;;1.60;0.90;;;22.50;74.00;;;;;;5055286;28;20552;-65
2021/12/30 08:59:12;;;;;;;1.63;0.90;;;22.50;74.10;;;;;;5055255;28;20450;-66
2021/12/30 09:01:39;;;;;;;1.00;0.80;;;22.50;74.10;;;;;;5071831;28;20450;-68
2021/12/30 09:04:05;;;;;;;1.07;0.83;;;22.50;74.20;;;;;;5074627;28;20457;-68
2021/12/30 09:06:32;;;;;;;1.50;1.00;;;22.60;74.50;;;;;;5072059;28;20468;-66
2021/12/30 09:09:00;;;;;;;1.27;1.17;;;22.60;74.40;;;;;;5073828;28;20498;-66
2021/12/30 09:11:27;;;;;;;1.30;1.00;;;22.60;74.50;;;;;;5073987;28;20451;-66
2021/12/30 09:13:55;;;;;;;1.00;0.90;;;22.50;74.30;;;;;;5073573;28;20437;-66
2021/12/30 09:16:22;;;;;;;1.20;0.90;;;22.50;74.30;;;;;;5069957;28;20437;-73
2021/12/30 09:18:49;;;;;;;1.20;1.00;;;22.50;74.30;;;;;;5065667;28;20920;-65
2021/12/30 09:21:16;;;;;;;1.00;0.80;;;22.50;74.30;;;;;;5073804;28;20441;-67
2021/12/30 09:23:43;;;;;;;1.20;1.00;;;22.50;74.30;;;;;;5070194;28;20974;-65
2021/12/30 09:26:09;;;;;;;1.10;0.90;;;22.50;74.40;;;;;;5074065;28;20448;-65
2021/12/30 09:28:36;;;;;;;1.00;0.90;;;22.50;74.40;;;;;;5074137;28;20441;-68
2021/12/30 09:31:04;;;;;;;1.20;1.10;;;22.50;74.40;;;;;;5073888;28;20440;-66
2021/12/30 09:33:31;;;;;;;1.90;1.20;;;22.50;74.40;;;;;;5073999;28;20527;-65
2021/12/30 09:35:59;;;;;;;2.57;1.30;;;22.50;74.70;;;;;;5072937;28;20488;-66
2021/12/30 09:38:26;;;;;;;2.93;1.20;;;22.60;74.70;;;;;;5073903;28;20929;-66
2021/12/30 09:40:53;;;;;;;2.53;1.10;;;22.70;74.60;;;;;;5073751;28;20472;-70
2021/12/30 09:43:20;;;;;;;3.40;1.20;;;22.70;74.50;;;;;;5073474;28;21099;-67
2021/12/30 09:45:46;;;;;;;2.00;1.10;;;22.70;74.00;;;;;;5073650;28;20451;-64
2021/12/30 09:48:16;;;;;;;0.97;0.77;;;22.80;74.20;;;;;;5073352;28;20444;-66
2021/12/30 09:50:45;;;;;;;2.13;1.10;;;22.80;74.10;;;;;;5073270;28;20438;-68
2021/12/30 09:53:12;;;;;;;5.00;1.40;;;22.80;74.10;;;;;;5073453;28;20448;-68
2021/12/30 09:55:39;;;;;;;1.47;1.00;;;22.90;74.00;;;;;;5072991;28;20491;-65
2021/12/30 09:58:06;;;;;;;1.70;1.20;;;22.90;73.90;;;;;;5073993;28;20437;-65
2021/12/30 10:00:34;;;;;;;1.20;1.00;;;22.90;74.00;;;;;;5072921;28;20448;-65
2021/12/30 10:03:02;;;;;;;2.00;1.40;;;22.90;74.10;;;;;;5072251;28;20448;-65
2021/12/30 10:05:32;;;;;;;1.80;1.10;;;22.90;74.00;;;;;;5071971;28;20452;-65
2021/12/30 10:08:09;;;;;;;1.30;1.20;;;22.90;74.00;;;;;;5072063;28;20450;-65
2021/12/30 10:10:39;;;;;;;1.80;1.00;;;22.90;73.90;;;;;;5059396;28;20853;-65
2021/12/30 10:13:16;;;;;;;1.17;0.97;;;22.90;73.90;;;;;;5051780;28;20535;-65
2021/12/30 10:15:45;;;;;;;2.27;1.10;;;22.90;73.80;;;;;;5051982;28;20481;-65
2021/12/30 10:18:12;;;;;;;4.40;0.90;;;22.90;73.80;;;;;;5053292;28;20479;-65
2021/12/30 10:20:42;;;;;;;2.23;0.83;;;22.90;73.80;;;;;;5053864;28;20445;-65
2021/12/30 10:23:10;;;;;;;2.07;0.90;;;22.90;73.60;;;;;;5053843;28;20864;-65
2021/12/30 10:25:40;;;;;;;5.20;1.13;;;22.90;73.50;;;;;;5053782;28;20433;-65
2021/12/30 10:28:19;;;;;;;1.10;0.90;;;22.90;73.60;;;;;;5053783;28;20438;-65
2021/12/30 10:30:46;;;;;;;2.27;1.60;;;22.90;74.30;;;;;;5053715;28;20449;-65
2021/12/30 10:33:15;;;;;;;4.37;1.27;;;22.90;74.00;;;;;;5053625;28;20429;-65
2021/12/30 10:35:43;;;;;;;1.00;0.90;;;22.90;74.30;;;;;;5053614;28;20489;-66
2021/12/30 10:38:11;;;;;;;1.43;1.10;;;22.90;74.20;;;;;;5053480;28;20444;-65
2021/12/30 10:40:41;;;;;;;2.97;1.20;;;22.90;74.30;;;;;;5053333;28;20527;-65
2021/12/30 10:43:28;;;;;;;1.20;1.10;;;22.90;75.10;;;;;;5053471;28;20438;-65
2021/12/30 10:46:19;;;;;;;2.27;1.40;;;22.90;74.30;;;;;;5053639;28;20780;-65
2021/12/30 10:48:55;;;;;;;8.00;2.27;;;22.90;74.30;;;;;;5053614;28;20439;-65
2021/12/30 10:51:26;;;;;;;1.30;1.00;;;22.90;74.40;;;;;;5053530;28;20938;-65
2021/12/30 10:53:54;;;;;;;5.73;1.20;;;22.90;74.50;;;;;;5053446;28;20438;-66
2021/12/30 10:56:23;;;;;;;1.30;1.13;;;22.90;74.80;;;;;;5053128;28;20483;-65
2021/12/30 10:58:50;;;;;;;6.10;1.20;;;22.90;74.70;;;;;;5053291;28;20452;-65
2021/12/30 11:01:19;;;;;;;4.53;1.60;;;22.90;74.50;;;;;;5053275;28;20442;-65
2021/12/30 11:03:57;;;;;;;3.73;1.27;;;22.90;74.60;;;;;;5053364;28;20782;-65
2021/12/30 11:06:25;;;;;;;3.07;1.17;;;22.90;74.60;;;;;;5053177;28;20442;-65
2021/12/30 11:09:15;;;;;;;3.40;1.33;;;22.90;74.50;;;;;;5053259;28;20462;-65
2021/12/30 11:11:45;;;;;;;3.03;1.00;;;22.90;74.30;;;;;;5053164;28;20442;-65
2021/12/30 11:14:14;;;;;;;1.20;1.10;;;22.90;74.30;;;;;;5053140;28;20445;-65
2021/12/30 11:17:00;;;;;;;3.10;2.03;;;22.90;74.20;;;;;;5052720;28;20489;-64
2021/12/30 11:19:29;;;;;;;1.23;1.07;;;22.90;74.10;;;;;;5053070;28;20850;-65
2021/12/30 11:21:58;;;;;;;1.10;1.00;;;22.90;74.20;;;;;;5053189;28;20502;-65
2021/12/30 11:24:26;;;;;;;2.10;1.37;;;22.90;74.20;;;;;;5052664;28;20465;-65
2021/12/30 11:26:54;;;;;;;1.43;1.13;;;22.90;74.30;;;;;;5052506;28;20446;-65
2021/12/30 11:29:22;;;;;;;1.50;1.03;;;22.90;74.20;;;;;;5052086;28;20438;-65
2021/12/30 11:31:48;;;;;;;2.13;1.13;;;22.90;74.40;;;;;;5051180;28;20442;-65
2021/12/30 11:34:15;;;;;;;3.40;1.10;;;22.90;74.40;;;;;;5052116;28;20442;-65
2021/12/30 11:36:42;;;;;;;1.90;1.13;;;22.90;74.30;;;;;;5052004;28;20504;-65
2021/12/30 11:39:16;;;;;;;1.60;1.23;;;22.90;75.10;;;;;;5052057;28;20945;-65
2021/12/30 11:41:46;;;;;;;1.50;1.17;;;22.90;74.10;;;;;;5051996;28;20469;-65
2021/12/30 11:44:32;;;;;;;1.60;1.30;;;23.00;74.20;;;;;;5052070;28;20443;-64
2021/12/30 11:46:58;;;;;;;2.33;1.27;;;23.00;74.30;;;;;;5051345;28;20476;-65
2021/12/30 11:49:55;;;;;;;1.90;1.20;;;23.00;74.20;;;;;;5051395;28;20456;-65
2021/12/30 11:53:08;;;;;;;1.90;1.10;;;23.00;74.10;;;;;;5051099;28;20450;-65
2021/12/30 11:55:54;;;;;;;1.30;1.20;;;23.00;74.00;;;;;;5051029;28;20490;-65
2021/12/30 11:58:49;;;;;;;3.47;1.47;;;23.00;74.00;;;;;;5051783;28;20935;-64
2021/12/30 12:01:34;;;;;;;1.30;1.00;;;23.00;74.00;;;;;;5055098;28;20433;-65
2021/12/30 12:04:05;;;;;;;2.80;1.17;;;23.00;74.00;;;;;;5056793;28;20464;-64
2021/12/30 12:06:35;;;;;;;1.13;1.00;;;22.90;74.40;;;;;;5056348;28;20527;-64
2021/12/30 12:09:08;;;;;;;1.20;0.87;;;23.00;73.60;;;;;;5056302;28;20458;-64
2021/12/30 12:11:47;;;;;;;1.10;1.00;;;23.00;73.00;;;;;;5056330;28;20430;-64
2021/12/30 12:14:16;;;;;;;1.17;1.07;;;23.10;72.80;;;;;;5056161;28;20438;-63
2021/12/30 12:16:55;;;;;;;1.30;1.20;;;23.00;72.50;;;;;;5055692;28;21004;-64
2021/12/30 12:19:33;;;;;;;4.50;1.53;;;23.00;72.50;;;;;;5056163;28;20978;-64
2021/12/30 12:22:01;;;;;;;1.20;1.10;;;23.10;72.30;;;;;;5055524;28;20442;-64
2021/12/30 12:24:32;;;;;;;2.23;1.10;;;23.10;72.10;;;;;;5055791;28;20787;-63
2021/12/30 12:27:02;;;;;;;1.13;1.00;;;23.10;72.10;;;;;;5055359;28;20917;-64
2021/12/30 12:29:32;;;;;;;1.10;1.00;;;23.10;73.00;;;;;;5055962;28;20445;-64
2021/12/30 12:32:03;;;;;;;1.10;0.90;;;23.10;72.30;;;;;;5054586;28;20447;-64
2021/12/30 12:34:34;;;;;;;1.10;0.90;;;23.10;72.10;;;;;;5055924;28;20450;-64
2021/12/30 12:37:01;;;;;;;1.23;0.97;;;23.10;71.90;;;;;;5055538;28;20488;-64
2021/12/30 12:39:36;;;;;;;1.20;1.00;;;23.10;71.90;;;;;;5055706;28;20466;-63
2021/12/30 12:42:05;;;;;;;1.77;1.10;;;23.10;71.80;;;;;;5055611;28;20465;-64
2021/12/30 12:44:32;;;;;;;1.10;1.00;;;23.10;71.70;;;;;;5055361;28;20438;-64
2021/12/30 12:47:01;;;;;;;1.30;1.00;;;23.10;71.70;;;;;;5055493;28;20454;-64
2021/12/30 12:49:45;;;;;;;1.40;0.90;;;23.10;71.80;;;;;;5054472;28;20438;-64
2021/12/30 12:52:12;;;;;;;1.27;1.10;;;23.20;71.60;;;;;;5054396;28;20955;-64
2021/12/30 12:54:40;;;;;;;1.47;1.10;;;23.10;71.60;;;;;;5054685;28;20446;-63